Time;durP1;ratioP1;P1;durP2;ratioP2;P2;SDS_P1;SDS_P2;PMS_P1;PMS_P2;Temp;Humidity;BMP_temperature;BMP_pressure;BME280_temperature;BME280_humidity;BME280_pressure;Samples;Min_cycle;Max_cycle;Signal;HPM_P1;HPM_P2
2021/05/11 00:00:15;;;;;;;11.20;4.90;;;12.30;51.40;;;;;;4975366;28;20109;-84
2021/05/11 00:02:41;;;;;;;6.60;4.10;;;12.30;51.40;;;;;;4975214;28;20023;-85
2021/05/11 00:05:07;;;;;;;5.82;4.13;;;12.40;51.40;;;;;;4975260;28;20421;-85
2021/05/11 00:07:33;;;;;;;7.30;4.25;;;12.40;51.30;;;;;;4975427;28;20054;-84
2021/05/11 00:09:59;;;;;;;6.60;4.05;;;12.40;51.20;;;;;;4975085;28;20062;-84
2021/05/11 00:12:24;;;;;;;7.47;4.47;;;12.50;51.10;;;;;;4986579;28;20034;-83
2021/05/11 00:14:50;;;;;;;5.70;3.63;;;12.60;51.00;;;;;;4989951;28;20378;-83
2021/05/11 00:17:16;;;;;;;8.90;4.10;;;12.60;50.90;;;;;;4975640;28;20110;-84
2021/05/11 00:19:41;;;;;;;4.13;3.30;;;12.70;50.90;;;;;;4975391;28;20536;-84
2021/05/11 00:22:07;;;;;;;5.82;3.92;;;12.80;50.90;;;;;;4975328;28;20029;-84
2021/05/11 00:24:32;;;;;;;5.47;3.88;;;12.80;50.70;;;;;;4974136;28;20023;-85
2021/05/11 00:26:58;;;;;;;5.07;3.78;;;12.90;50.70;;;;;;4973689;28;20101;-85
2021/05/11 00:29:24;;;;;;;4.82;3.60;;;12.90;50.50;;;;;;4974368;28;20031;-84
2021/05/11 00:31:49;;;;;;;6.88;3.88;;;12.90;50.40;;;;;;4974739;28;20063;-85
2021/05/11 00:34:15;;;;;;;5.82;3.60;;;12.90;50.30;;;;;;4975000;28;20031;-84
2021/05/11 00:36:41;;;;;;;6.20;3.83;;;12.90;50.30;;;;;;4974696;28;20027;-83
2021/05/11 00:39:07;;;;;;;6.80;3.70;;;13.00;50.20;;;;;;4974805;28;20141;-83
2021/05/11 00:41:32;;;;;;;5.22;3.35;;;13.00;50.10;;;;;;4974689;28;20382;-81
2021/05/11 00:43:58;;;;;;;6.63;3.67;;;13.00;50.00;;;;;;4974102;28;20022;-80
2021/05/11 00:46:26;;;;;;;4.15;3.50;;;13.10;49.80;;;;;;4973785;28;20031;-80
2021/05/11 00:48:51;;;;;;;5.72;3.70;;;13.10;49.70;;;;;;4973750;28;20049;-77
2021/05/11 00:51:17;;;;;;;5.38;3.50;;;13.10;49.70;;;;;;4975612;28;20529;-77
2021/05/11 00:53:45;;;;;;;6.50;3.55;;;13.10;49.60;;;;;;4978510;28;20027;-77
2021/05/11 00:56:12;;;;;;;5.35;3.60;;;13.10;49.50;;;;;;4977802;28;20061;-77
2021/05/11 00:58:38;;;;;;;7.00;3.78;;;13.10;49.40;;;;;;4977804;28;20110;-78
2021/05/11 01:01:05;;;;;;;4.30;3.42;;;13.10;49.40;;;;;;4977630;28;20094;-78
2021/05/11 01:03:31;;;;;;;4.95;3.63;;;13.10;49.30;;;;;;5009173;28;20470;-78
2021/05/11 01:05:57;;;;;;;8.15;3.55;;;13.00;49.20;;;;;;4977809;28;20054;-78
2021/05/11 01:08:22;;;;;;;7.07;3.40;;;13.00;49.20;;;;;;4977415;28;20035;-78
2021/05/11 01:10:48;;;;;;;6.80;3.30;;;13.10;49.20;;;;;;4977131;28;20509;-78
2021/05/11 01:13:14;;;;;;;4.68;3.22;;;13.10;49.10;;;;;;4976888;28;20031;-77
2021/05/11 01:15:42;;;;;;;7.32;3.65;;;13.10;48.90;;;;;;4976791;28;20098;-78
2021/05/11 01:18:14;;;;;;;5.05;3.17;;;13.10;48.70;;;;;;4977763;28;20026;-77
2021/05/11 01:20:47;;;;;;;5.00;3.55;;;13.10;48.70;;;;;;4978061;28;20019;-76
2021/05/11 01:25:40;;;;;;;9.82;3.53;;;13.10;48.50;;;;;;4977387;28;20030;-78
2021/05/11 01:28:33;;;;;;;8.32;3.30;;;13.10;48.40;;;;;;4977159;28;20073;-77
2021/05/11 02:24:59;;;;;;;4.85;3.33;;;13.50;47.30;;;;;;4975597;28;20030;-79
2021/05/11 02:27:24;;;;;;;5.18;3.25;;;13.50;47.10;;;;;;5007043;28;20050;-77
2021/05/11 02:29:50;;;;;;;6.65;3.50;;;13.50;47.00;;;;;;5007368;28;20132;-77
2021/05/11 02:32:17;;;;;;;9.70;3.55;;;13.50;46.90;;;;;;4975996;28;20544;-77
2021/05/11 02:34:43;;;;;;;6.70;3.58;;;13.60;47.00;;;;;;4976104;28;20501;-77
2021/05/11 02:37:09;;;;;;;4.38;3.35;;;13.80;47.00;;;;;;4975961;28;20027;-77
2021/05/11 02:39:35;;;;;;;5.38;3.50;;;14.20;46.70;;;;;;4976120;28;20033;-77
2021/05/11 02:42:00;;;;;;;4.53;3.53;;;14.60;46.10;;;;;;4976026;28;20109;-77
2021/05/11 02:44:26;;;;;;;6.32;3.38;;;14.60;45.50;;;;;;4975999;28;20050;-77
2021/05/11 02:46:52;;;;;;;7.65;4.72;;;14.60;45.20;;;;;;5007601;28;20113;-77
2021/05/11 02:49:19;;;;;;;10.45;3.90;;;14.60;45.10;;;;;;4974881;28;20031;-77
2021/05/11 02:51:45;;;;;;;5.40;3.60;;;14.50;45.20;;;;;;4976102;28;20450;-77
2021/05/11 02:54:12;;;;;;;3.95;3.08;;;14.50;45.40;;;;;;4976304;28;20031;-77
2021/05/11 02:56:37;;;;;;;5.35;3.55;;;14.40;45.50;;;;;;4975685;28;20023;-77
2021/05/11 02:59:03;;;;;;;4.90;3.50;;;14.40;45.60;;;;;;5006718;28;20034;-76
2021/05/11 03:01:29;;;;;;;6.78;3.40;;;14.30;45.70;;;;;;4975543;28;20035;-76
2021/05/11 03:03:55;;;;;;;8.45;3.20;;;14.30;45.90;;;;;;4975425;28;20022;-77
2021/05/11 03:06:21;;;;;;;4.13;3.40;;;14.30;45.90;;;;;;4975680;28;20054;-78
2021/05/11 03:08:46;;;;;;;3.75;3.30;;;14.30;46.00;;;;;;5006757;28;20054;-78
2021/05/11 03:11:12;;;;;;;5.40;3.35;;;14.30;45.90;;;;;;4974075;28;20023;-79
2021/05/11 03:13:38;;;;;;;7.10;3.53;;;14.40;46.00;;;;;;5005962;28;20054;-78
2021/05/11 03:16:04;;;;;;;6.68;3.47;;;14.40;45.90;;;;;;4975721;28;20019;-78
2021/05/11 03:18:29;;;;;;;5.43;3.38;;;14.50;46.00;;;;;;4975691;28;20027;-78
2021/05/11 03:20:55;;;;;;;7.75;3.85;;;14.50;45.90;;;;;;4975661;28;20554;-78
2021/05/11 03:23:21;;;;;;;6.72;3.28;;;14.60;46.00;;;;;;4975464;28;20046;-79
2021/05/11 03:25:46;;;;;;;6.45;3.60;;;14.50;45.80;;;;;;4974531;28;20027;-78
2021/05/11 03:28:12;;;;;;;5.53;3.38;;;14.60;45.80;;;;;;4973615;28;20057;-79
2021/05/11 03:30:40;;;;;;;8.60;3.38;;;14.70;45.80;;;;;;4974250;28;20540;-78
2021/05/11 03:33:06;;;;;;;7.05;3.53;;;14.70;45.80;;;;;;4974025;28;20123;-78
2021/05/11 03:35:32;;;;;;;5.32;3.83;;;14.80;45.80;;;;;;4973947;28;20030;-78
2021/05/11 03:37:58;;;;;;;5.60;3.47;;;14.90;46.50;;;;;;4973914;28;20027;-78
2021/05/11 03:40:23;;;;;;;4.65;3.03;;;14.90;45.80;;;;;;4972519;28;20385;-78
2021/05/11 03:42:56;;;;;;;6.32;3.38;;;15.00;45.90;;;;;;4973761;28;20385;-78
2021/05/11 03:45:29;;;;;;;4.97;3.38;;;15.00;45.80;;;;;;4973913;28;20042;-78
2021/05/11 03:47:54;;;;;;;4.18;3.20;;;15.10;45.80;;;;;;4974106;28;20037;-79
2021/05/11 03:50:20;;;;;;;9.60;4.00;;;15.10;45.70;;;;;;4973702;28;20027;-78
2021/05/11 03:52:46;;;;;;;19.90;3.42;;;15.20;45.70;;;;;;4974582;28;20085;-80
2021/05/11 03:55:12;;;;;;;4.68;3.75;;;15.20;45.70;;;;;;5007232;28;20053;-78
2021/05/11 03:57:38;;;;;;;3.42;3.13;;;15.30;45.70;;;;;;5005666;28;20381;-78
2021/05/11 04:00:05;;;;;;;6.32;3.33;;;15.40;45.70;;;;;;4974950;28;20030;-78
2021/05/11 04:02:31;;;;;;;4.63;3.67;;;15.50;45.60;;;;;;5005058;28;20022;-77
2021/05/11 04:04:56;;;;;;;6.20;3.20;;;15.60;45.50;;;;;;4973536;28;20078;-78
2021/05/11 04:07:22;;;;;;;11.02;3.65;;;15.70;45.40;;;;;;4973500;28;20417;-79
2021/05/11 04:09:55;;;;;;;9.40;4.15;;;15.90;45.30;;;;;;4973566;28;20026;-79
2021/05/11 04:12:42;;;;;;;5.88;3.50;;;16.00;45.20;;;;;;4974230;28;20098;-79
2021/05/11 04:17:52;;;;;;;12.48;5.47;;;16.00;44.90;;;;;;4974020;28;20029;-79
2021/05/11 04:20:18;;;;;;;13.93;5.18;;;16.00;45.00;;;;;;4973709;28;20109;-78
2021/05/11 04:22:44;;;;;;;11.00;4.22;;;16.10;44.90;;;;;;4971994;28;20109;-79
2021/05/11 04:25:10;;;;;;;5.22;3.20;;;16.10;44.80;;;;;;4971729;28;20106;-78
2021/05/11 04:27:36;;;;;;;5.90;3.40;;;16.00;44.60;;;;;;4973189;28;20113;-79
2021/05/11 04:30:04;;;;;;;7.70;4.53;;;16.10;44.50;;;;;;4973529;28;20030;-79
2021/05/11 04:32:30;;;;;;;6.15;4.72;;;16.10;44.60;;;;;;4974456;28;20027;-81
2021/05/11 04:34:55;;;;;;;13.05;3.85;;;16.00;44.70;;;;;;4974246;28;20503;-80
2021/05/11 04:37:21;;;;;;;6.75;3.55;;;16.00;44.80;;;;;;4973402;28;20031;-80
2021/05/11 04:39:47;;;;;;;7.00;3.63;;;16.00;44.80;;;;;;4973084;28;20453;-80
2021/05/11 04:42:13;;;;;;;11.85;3.75;;;16.00;44.80;;;;;;4972001;28;20023;-80
2021/05/11 04:44:39;;;;;;;13.50;4.13;;;16.00;45.00;;;;;;4973609;28;20050;-81
2021/05/11 04:47:20;;;;;;;15.55;3.72;;;16.00;45.10;;;;;;4975636;28;20026;-80
2021/05/11 04:49:45;;;;;;;7.57;3.55;;;16.00;45.30;;;;;;5005871;28;20445;-82
2021/05/11 04:52:11;;;;;;;8.77;3.85;;;16.10;45.40;;;;;;4975762;28;20038;-81
2021/05/11 04:54:37;;;;;;;11.55;3.58;;;16.10;45.40;;;;;;4972943;28;20397;-81
2021/05/11 04:57:04;;;;;;;10.48;3.85;;;16.10;45.30;;;;;;4973475;28;20027;-81
2021/05/11 04:59:29;;;;;;;12.15;3.78;;;16.10;45.40;;;;;;4972869;28;20015;-81
2021/05/11 05:01:56;;;;;;;7.15;3.47;;;16.10;45.40;;;;;;5006733;28;20049;-81
2021/05/11 05:04:22;;;;;;;12.45;3.50;;;16.10;45.60;;;;;;4976083;28;20473;-80
2021/05/11 05:06:48;;;;;;;8.00;3.97;;;16.20;45.70;;;;;;4972738;28;20031;-80
2021/05/11 05:09:14;;;;;;;8.05;4.00;;;16.20;45.70;;;;;;4973090;28;20034;-80
2021/05/11 05:11:40;;;;;;;5.85;3.50;;;16.30;45.70;;;;;;4972961;28;20059;-80
2021/05/11 05:14:10;;;;;;;12.05;4.18;;;16.30;45.60;;;;;;4972570;28;20066;-79
2021/05/11 05:16:36;;;;;;;17.65;9.32;;;16.40;45.80;;;;;;4972288;28;20114;-79
2021/05/11 05:19:05;;;;;;;14.43;7.25;;;16.40;45.80;;;;;;4971926;28;20023;-79
2021/05/11 05:21:31;;;;;;;11.75;4.47;;;16.50;46.00;;;;;;4972215;28;20068;-80
2021/05/11 05:24:05;;;;;;;8.80;3.60;;;16.60;45.90;;;;;;4972518;28;20454;-80
2021/05/11 05:26:30;;;;;;;7.85;3.92;;;16.70;46.00;;;;;;4972332;28;20019;-80
2021/05/11 05:28:58;;;;;;;7.68;3.90;;;16.80;46.00;;;;;;4973014;28;20097;-80
2021/05/11 05:31:23;;;;;;;11.48;7.60;;;16.90;46.00;;;;;;4972821;28;20106;-80
2021/05/11 05:33:49;;;;;;;12.93;7.45;;;17.00;45.90;;;;;;5003658;28;20110;-79
2021/05/11 05:36:15;;;;;;;16.52;8.50;;;17.10;45.90;;;;;;5003631;28;20038;-80
2021/05/11 05:38:41;;;;;;;7.80;4.90;;;17.10;45.90;;;;;;4976300;28;20462;-79
2021/05/11 05:41:11;;;;;;;8.38;3.80;;;17.20;46.00;;;;;;4975992;28;20034;-79
2021/05/11 05:43:36;;;;;;;7.25;3.70;;;17.30;46.10;;;;;;5007068;28;20023;-80
2021/05/11 05:46:03;;;;;;;9.93;4.82;;;17.30;46.10;;;;;;4975852;28;20488;-80
2021/05/11 05:48:28;;;;;;;7.50;4.97;;;17.40;46.30;;;;;;4976390;28;20031;-81
2021/05/11 05:50:57;;;;;;;11.52;4.40;;;17.50;46.40;;;;;;4975809;28;20038;-81
2021/05/11 05:53:33;;;;;;;10.50;3.67;;;17.50;46.30;;;;;;4976032;28;20033;-80
2021/05/11 05:56:00;;;;;;;6.95;4.00;;;17.60;46.40;;;;;;5007412;28;20480;-81
2021/05/11 05:58:25;;;;;;;10.35;3.90;;;17.70;46.50;;;;;;5007087;28;20469;-81
2021/05/11 06:00:59;;;;;;;12.18;4.20;;;17.80;46.40;;;;;;4975663;28;20052;-82
2021/05/11 06:06:07;;;;;;;8.98;4.38;;;17.90;46.20;;;;;;4975344;28;20031;-80
2021/05/11 06:08:33;;;;;;;8.10;4.07;;;18.10;46.10;;;;;;5006949;28;20034;-81
2021/05/11 06:11:04;;;;;;;20.08;3.95;;;18.20;46.00;;;;;;5007418;28;20460;-80
2021/05/11 06:13:55;;;;;;;6.43;3.05;;;18.40;45.90;;;;;;4974919;28;20416;-81
2021/05/11 06:19:04;;;;;;;5.40;3.10;;;19.00;45.60;;;;;;4975577;28;20458;-78
2021/05/11 06:21:31;;;;;;;11.23;4.30;;;19.30;45.20;;;;;;4974626;28;20110;-79
2021/05/11 06:23:56;;;;;;;7.55;3.55;;;19.50;44.80;;;;;;4975386;28;20073;-80
2021/05/11 06:26:22;;;;;;;12.00;3.58;;;19.80;44.50;;;;;;4974651;28;20125;-77
2021/05/11 06:28:48;;;;;;;9.18;3.72;;;20.10;44.20;;;;;;4974050;28;20464;-77
2021/05/11 06:31:14;;;;;;;9.23;4.07;;;20.50;44.00;;;;;;4973244;28;20023;-76
2021/05/11 06:33:40;;;;;;;8.23;4.32;;;20.90;43.60;;;;;;4973579;28;20019;-77
2021/05/11 06:36:06;;;;;;;9.77;3.88;;;21.40;43.10;;;;;;4972147;28;20473;-75
2021/05/11 06:38:32;;;;;;;9.68;4.47;;;21.90;42.50;;;;;;4973038;28;20525;-76
2021/05/11 06:40:59;;;;;;;9.40;4.03;;;22.80;42.50;;;;;;4973075;28;20023;-76
2021/05/11 06:43:30;;;;;;;5.90;3.30;;;24.50;41.70;;;;;;5005304;28;20027;-79
2021/05/11 06:48:36;;;;;;;13.35;3.28;;;27.90;38.90;;;;;;4974408;28;20037;-78
2021/05/11 06:53:53;;;;;;;16.30;6.20;;;30.60;36.00;;;;;;4974826;28;20058;-79
2021/05/11 06:56:19;;;;;;;8.32;4.10;;;31.30;34.00;;;;;;4974056;28;20030;-79
2021/05/11 06:58:45;;;;;;;6.60;3.20;;;31.30;33.20;;;;;;4974452;28;20098;-79
2021/05/11 07:01:14;;;;;;;9.13;3.50;;;31.10;32.70;;;;;;4974493;28;20106;-79
2021/05/11 07:03:40;;;;;;;5.00;3.00;;;30.80;32.50;;;;;;5005804;28;20027;-80
2021/05/11 07:06:06;;;;;;;4.25;3.10;;;30.20;32.40;;;;;;4974619;28;20074;-79
2021/05/11 07:08:43;;;;;;;7.88;3.47;;;29.60;32.60;;;;;;4974124;28;20113;-83
2021/05/11 07:13:46;;;;;;;10.25;4.25;;;28.40;33.40;;;;;;4973466;28;20035;-77
2021/05/11 07:16:12;;;;;;;13.00;4.53;;;28.20;34.20;;;;;;4974067;28;20039;-81
2021/05/11 07:18:38;;;;;;;8.98;4.30;;;28.20;34.70;;;;;;4973742;28;20031;-79
2021/05/11 07:21:04;;;;;;;10.30;4.00;;;28.50;35.00;;;;;;5005797;28;20033;-80
2021/05/11 07:23:31;;;;;;;6.57;4.50;;;29.20;35.30;;;;;;4974094;28;20030;-79
2021/05/11 07:28:37;;;;;;;11.77;4.18;;;30.70;34.60;;;;;;4973480;28;20101;-76
2021/05/11 07:31:07;;;;;;;10.93;2.65;;;31.40;34.10;;;;;;4973631;28;20035;-74
2021/05/11 07:33:40;;;;;;;16.88;3.13;;;32.00;33.80;;;;;;5004748;28;20031;-79
2021/05/11 07:36:06;;;;;;;7.28;2.63;;;32.50;33.70;;;;;;4973608;28;20061;-79
2021/05/11 07:38:32;;;;;;;11.25;3.58;;;32.90;33.20;;;;;;4973823;28;20039;-77
2021/05/11 07:40:58;;;;;;;10.23;2.88;;;33.40;33.00;;;;;;4973567;28;20034;-77
2021/05/11 07:43:26;;;;;;;13.98;3.83;;;33.70;32.60;;;;;;5004466;28;20027;-79
2021/05/11 08:17:43;;;;;;;10.90;4.53;;;31.20;33.60;;;;;;4972221;28;20512;-78
2021/05/11 08:20:18;;;;;;;6.32;2.75;;;31.30;33.70;;;;;;4972597;28;20057;-78
2021/05/11 08:23:07;;;;;;;10.65;3.10;;;31.40;34.00;;;;;;4972096;28;20023;-79
2021/05/11 08:28:17;;;;;;;10.15;3.05;;;31.90;33.70;;;;;;4972287;28;20536;-80
2021/05/11 08:30:43;;;;;;;6.53;2.88;;;32.10;33.50;;;;;;5003659;28;20031;-79
2021/05/11 08:33:08;;;;;;;24.02;3.65;;;32.20;33.30;;;;;;4972203;28;20027;-79
2021/05/11 08:35:34;;;;;;;12.20;3.58;;;32.20;33.00;;;;;;4972258;28;20054;-77
2021/05/11 08:38:00;;;;;;;9.43;4.68;;;32.00;32.90;;;;;;4972644;28;20030;-78
2021/05/11 08:40:26;;;;;;;6.70;3.30;;;31.90;33.20;;;;;;4970339;28;20144;-77
2021/05/11 08:42:52;;;;;;;19.90;3.92;;;32.00;33.30;;;;;;4972167;28;20519;-78
2021/05/11 08:45:18;;;;;;;9.68;3.00;;;32.20;33.30;;;;;;4972096;28;20015;-77
2021/05/11 08:47:50;;;;;;;7.25;2.67;;;32.40;33.40;;;;;;5002630;28;20123;-77
2021/05/11 08:50:19;;;;;;;11.40;3.67;;;32.50;33.10;;;;;;4971980;28;20070;-78
2021/05/11 08:52:58;;;;;;;11.13;2.83;;;32.50;32.90;;;;;;4972323;28;20126;-78
2021/05/11 09:24:06;;;;;;;21.05;7.25;;;32.50;33.30;;;;;;4975580;28;20366;-76
2021/05/11 09:29:11;;;;;;;29.08;12.18;;;32.20;33.20;;;;;;4975827;28;20074;-78
2021/05/11 09:34:25;;;;;;;18.95;6.53;;;31.60;33.40;;;;;;4975840;28;20049;-77
2021/05/11 10:13:44;;;;;;;27.65;5.50;;;29.80;35.20;;;;;;4977138;28;20484;-79
2021/05/11 10:47:02;;;;;;;13.40;2.58;;;28.90;36.70;;;;;;4959590;28;20485;-81
2021/05/11 10:49:27;;;;;;;9.38;3.00;;;28.80;36.70;;;;;;4952798;28;20038;-82
2021/05/11 10:54:51;;;;;;;13.50;2.60;;;28.60;36.60;;;;;;4959001;29;20394;-83
2021/05/11 10:57:49;;;;;;;12.27;3.15;;;28.50;36.70;;;;;;4955012;29;20031;-82
2021/05/11 11:00:41;;;;;;;11.30;3.38;;;28.50;36.80;;;;;;4955486;28;20023;-83
2021/05/11 11:03:25;;;;;;;15.88;2.60;;;28.50;36.70;;;;;;4954690;29;20557;-83
2021/05/11 11:05:55;;;;;;;14.18;2.83;;;28.40;37.40;;;;;;4955344;28;20027;-76
2021/05/11 11:08:29;;;;;;;13.00;2.80;;;28.30;36.70;;;;;;4956126;28;20094;-82
2021/05/11 11:11:21;;;;;;;10.88;2.75;;;28.20;36.70;;;;;;4954458;29;20367;-83
2021/05/11 11:13:52;;;;;;;8.20;2.83;;;28.20;36.90;;;;;;4962026;28;20026;-84
2021/05/11 11:16:20;;;;;;;14.38;4.22;;;28.10;36.90;;;;;;4973504;28;20445;-84
2021/05/11 11:18:47;;;;;;;11.75;3.13;;;28.00;37.10;;;;;;4975755;28;20589;-85
2021/05/11 11:23:57;;;;;;;11.65;3.00;;;28.00;37.60;;;;;;4981286;28;20019;-84
2021/05/11 11:26:36;;;;;;;7.22;2.90;;;28.00;37.90;;;;;;4981662;28;20019;-82
2021/05/11 11:29:11;;;;;;;12.80;3.00;;;28.00;37.90;;;;;;4982960;28;20050;-86
2021/05/11 11:31:44;;;;;;;9.40;3.75;;;28.00;38.00;;;;;;4976598;28;20019;-85
2021/05/11 11:34:36;;;;;;;12.48;2.75;;;28.10;38.10;;;;;;4977809;28;20069;-83
2021/05/11 11:37:09;;;;;;;13.88;3.22;;;28.20;38.10;;;;;;4976556;28;20054;-84
2021/05/11 11:39:46;;;;;;;11.25;4.57;;;28.40;38.10;;;;;;4976545;28;20031;-84
2021/05/11 11:42:25;;;;;;;15.25;2.72;;;28.40;37.80;;;;;;4977705;28;20102;-85
2021/05/11 11:44:59;;;;;;;17.35;3.25;;;28.30;37.30;;;;;;5008370;28;20027;-84
2021/05/11 11:47:26;;;;;;;15.85;2.90;;;28.10;37.30;;;;;;4977494;28;20477;-84
2021/05/11 11:49:55;;;;;;;4.93;2.97;;;27.80;37.30;;;;;;4976959;28;20066;-83
2021/05/11 12:00:23;;;;;;;14.18;3.22;;;27.50;37.90;;;;;;4976948;28;19913;-84
2021/05/11 12:03:00;;;;;;;11.82;4.32;;;27.50;38.00;;;;;;4980963;28;20027;-85
2021/05/11 12:05:35;;;;;;;13.32;3.92;;;27.60;38.00;;;;;;4979987;28;20105;-85
2021/05/11 12:10:50;;;;;;;12.18;2.78;;;27.80;37.90;;;;;;4976508;28;20033;-84
2021/05/11 12:13:28;;;;;;;11.27;3.15;;;27.90;37.80;;;;;;4976693;28;20038;-84
2021/05/11 12:16:16;;;;;;;15.35;4.03;;;28.00;37.50;;;;;;5008018;28;20398;-84
2021/05/11 12:19:04;;;;;;;14.43;3.13;;;28.00;37.30;;;;;;4975767;28;20026;-84
2021/05/11 12:21:35;;;;;;;11.30;3.03;;;27.90;37.20;;;;;;4977515;28;20022;-84
2021/05/11 12:24:11;;;;;;;;;;;27.80;37.20;;;;;;4976492;28;20023;-85
2021/05/11 12:26:38;;;;;;;11.38;2.78;;;27.80;37.30;;;;;;4975062;28;19945;-84
2021/05/11 12:29:08;;;;;;;14.40;3.40;;;27.70;37.30;;;;;;4975666;28;20015;-83
2021/05/11 12:31:36;;;;;;;9.88;3.30;;;27.60;37.20;;;;;;4975316;28;20473;-83
2021/05/11 12:34:10;;;;;;;11.63;3.42;;;27.40;37.10;;;;;;4975711;28;20103;-84
2021/05/11 12:36:50;;;;;;;12.70;3.60;;;27.40;37.40;;;;;;4977399;28;20024;-83
2021/05/11 12:42:21;;;;;;;8.27;3.15;;;27.40;37.50;;;;;;4977511;28;20030;-83
2021/05/11 12:45:15;;;;;;;14.30;3.42;;;27.50;38.00;;;;;;4984345;28;20030;-84
2021/05/11 12:47:46;;;;;;;10.13;4.13;;;27.50;38.10;;;;;;4978211;28;20033;-82
2021/05/11 12:50:23;;;;;;;16.98;3.42;;;27.60;38.20;;;;;;4978648;28;20031;-83
2021/05/11 12:52:52;;;;;;;6.00;3.30;;;27.60;38.20;;;;;;4978144;28;20034;-83
2021/05/11 13:04:35;;;;;;;8.40;4.25;;;27.30;37.80;;;;;;4979074;28;20023;-86
2021/05/11 13:30:55;;;;;;;9.40;3.58;;;26.30;39.50;;;;;;4977413;28;20038;-84
2021/05/11 13:35:47;;;;;;;9.85;4.47;;;26.20;39.80;;;;;;4975170;28;20022;-79
2021/05/11 13:38:12;;;;;;;15.73;4.72;;;26.10;39.80;;;;;;5006179;28;20061;-80
2021/05/11 13:40:38;;;;;;;8.98;4.40;;;26.00;39.80;;;;;;4974809;28;20521;-81
2021/05/11 13:43:04;;;;;;;7.03;4.15;;;25.90;40.10;;;;;;4973405;28;20126;-81
2021/05/11 13:45:30;;;;;;;12.23;4.88;;;25.80;40.40;;;;;;5005576;28;20043;-80
2021/05/11 13:53:15;;;;;;;20.05;5.53;;;25.50;40.60;;;;;;4975294;28;20484;-81
2021/05/11 14:03:57;;;;;;;15.68;5.40;;;25.10;41.50;;;;;;4977987;28;20041;-87
2021/05/11 14:06:26;;;;;;;15.80;6.15;;;25.00;41.60;;;;;;4978285;28;20027;-86
2021/05/11 14:08:52;;;;;;;6.38;5.45;;;25.00;42.00;;;;;;4977932;28;20034;-85
2021/05/11 14:11:21;;;;;;;13.88;5.32;;;24.90;42.20;;;;;;4978973;28;20030;-85
2021/05/11 14:13:47;;;;;;;10.25;5.10;;;24.90;42.40;;;;;;4977316;28;20061;-86
2021/05/11 14:16:13;;;;;;;10.98;5.13;;;24.90;42.50;;;;;;5008944;28;20486;-86
2021/05/11 14:18:41;;;;;;;8.40;4.90;;;24.90;42.50;;;;;;4978072;28;20023;-86
2021/05/11 14:21:07;;;;;;;7.47;4.75;;;24.90;42.60;;;;;;4978085;28;20030;-86
2021/05/11 14:23:33;;;;;;;9.55;4.80;;;24.80;42.60;;;;;;4975420;28;20110;-86
2021/05/11 14:26:00;;;;;;;8.98;5.32;;;24.80;42.90;;;;;;4976861;28;20074;-85
2021/05/11 14:28:26;;;;;;;11.38;5.25;;;24.70;43.20;;;;;;4975336;28;20054;-86
2021/05/11 14:30:52;;;;;;;11.95;4.47;;;24.60;43.50;;;;;;4977993;28;20053;-86
2021/05/11 14:33:17;;;;;;;18.48;4.88;;;24.40;45.80;;;;;;5011171;28;20062;-85
2021/05/11 14:35:43;;;;;;;12.38;4.15;;;23.80;48.00;;;;;;5010865;28;20026;-84
2021/05/11 14:38:09;;;;;;;21.38;4.70;;;23.20;50.00;;;;;;4986475;28;20021;-85
2021/05/11 14:40:34;;;;;;;24.05;4.40;;;22.60;51.90;;;;;;4983933;28;20057;-86
2021/05/11 14:43:00;;;;;;;16.05;4.50;;;22.00;53.50;;;;;;4976948;28;20030;-85
2021/05/11 14:45:27;;;;;;;11.32;4.70;;;21.60;54.80;;;;;;4975826;28;20022;-84
2021/05/11 14:47:53;;;;;;;33.28;5.78;;;21.30;56.30;;;;;;5005745;28;20042;-79
2021/05/11 14:50:21;;;;;;;13.52;4.60;;;20.90;57.50;;;;;;4972731;28;20445;-78
2021/05/11 14:52:55;;;;;;;14.77;5.53;;;20.70;58.50;;;;;;4973081;28;20532;-79
2021/05/11 14:55:25;;;;;;;14.52;4.43;;;20.40;59.70;;;;;;4973814;28;20037;-78
2021/05/11 14:57:55;;;;;;;14.75;5.82;;;20.20;60.90;;;;;;5004395;28;20078;-77
2021/05/11 15:00:25;;;;;;;11.75;4.93;;;19.90;61.70;;;;;;4972695;28;20019;-78
2021/05/11 15:02:51;;;;;;;12.35;5.70;;;19.60;62.40;;;;;;4973069;28;20081;-78
2021/05/11 15:05:17;;;;;;;10.30;5.88;;;19.40;63.60;;;;;;4971681;28;20026;-78
2021/05/11 15:07:43;;;;;;;9.93;5.20;;;19.30;63.80;;;;;;4973066;28;20026;-78
2021/05/11 15:10:09;;;;;;;12.00;5.75;;;19.30;64.20;;;;;;4971285;28;20057;-80
2021/05/11 15:12:35;;;;;;;10.18;5.32;;;19.30;64.40;;;;;;4973791;28;20030;-78
2021/05/11 15:15:01;;;;;;;10.02;6.05;;;19.30;64.60;;;;;;5005955;28;20104;-78
2021/05/11 15:19:56;;;;;;;7.25;6.10;;;19.00;65.10;;;;;;4973074;28;20026;-77
2021/05/11 15:22:22;;;;;;;11.57;6.07;;;18.90;65.50;;;;;;4972742;28;20015;-78
2021/05/11 15:24:50;;;;;;;15.25;6.30;;;18.80;65.90;;;;;;5003708;28;20166;-78
2021/05/11 15:27:17;;;;;;;13.40;6.50;;;18.60;66.30;;;;;;4972602;28;20042;-79
2021/05/11 15:29:43;;;;;;;13.70;6.38;;;18.50;67.00;;;;;;4972655;28;20026;-77
2021/05/11 15:32:44;;;;;;;8.65;6.13;;;18.40;67.40;;;;;;4972542;28;20026;-79
2021/05/11 15:35:14;;;;;;;12.38;6.55;;;18.30;67.70;;;;;;4972498;28;20041;-78
2021/05/11 15:37:41;;;;;;;8.25;6.22;;;18.30;67.70;;;;;;4972379;28;20034;-78
2021/05/11 15:40:13;;;;;;;10.93;6.70;;;18.20;67.50;;;;;;4972352;28;20027;-78
2021/05/11 15:42:39;;;;;;;9.30;6.57;;;18.20;67.70;;;;;;4972481;28;20110;-79
2021/05/11 15:45:06;;;;;;;9.85;6.55;;;18.20;67.50;;;;;;5003661;28;20122;-80
2021/05/11 15:47:32;;;;;;;17.42;7.57;;;18.20;67.60;;;;;;4977496;28;20081;-82
2021/05/11 15:49:58;;;;;;;16.17;7.30;;;18.20;67.50;;;;;;5010123;28;20027;-80
2021/05/11 15:52:24;;;;;;;11.43;7.30;;;18.20;67.30;;;;;;4974958;28;20058;-83
2021/05/11 15:54:50;;;;;;;12.85;7.43;;;18.20;67.30;;;;;;4974032;28;20770;-84
2021/05/11 15:57:16;;;;;;;13.45;7.28;;;18.20;67.10;;;;;;4974669;28;20030;-84
2021/05/11 15:59:43;;;;;;;15.23;8.20;;;18.20;67.20;;;;;;4973283;28;20029;-84
2021/05/11 16:02:09;;;;;;;11.95;7.45;;;18.20;67.30;;;;;;4974568;28;20038;-84
2021/05/11 16:04:35;;;;;;;12.52;7.57;;;18.10;67.20;;;;;;4974357;28;20025;-86
2021/05/11 16:07:01;;;;;;;11.75;8.00;;;18.10;67.10;;;;;;4973895;28;20106;-85
2021/05/11 16:09:27;;;;;;;8.52;7.30;;;18.00;66.90;;;;;;4973487;28;20470;-84
2021/05/11 16:11:53;;;;;;;17.77;7.70;;;18.00;66.90;;;;;;4971381;28;20035;-83
2021/05/11 16:14:19;;;;;;;18.30;8.30;;;18.00;66.90;;;;;;4972610;28;20035;-84
2021/05/11 16:16:45;;;;;;;17.20;7.03;;;18.00;67.00;;;;;;4974369;28;20050;-84
2021/05/11 16:19:11;;;;;;;10.07;7.15;;;18.00;66.80;;;;;;4974804;28;20377;-85
2021/05/11 16:21:37;;;;;;;12.02;7.05;;;18.10;66.60;;;;;;4972112;28;20027;-84
2021/05/11 16:24:03;;;;;;;13.20;8.40;;;18.00;66.50;;;;;;4974756;28;20031;-83
2021/05/11 16:26:29;;;;;;;17.48;8.98;;;18.00;66.70;;;;;;4983068;28;20027;-85
2021/05/11 16:28:55;;;;;;;11.75;8.60;;;18.00;66.70;;;;;;4980755;28;20038;-84
2021/05/11 16:31:22;;;;;;;15.60;9.48;;;17.90;66.60;;;;;;4974971;28;20034;-85
2021/05/11 16:33:48;;;;;;;10.90;9.07;;;17.90;66.70;;;;;;4974773;28;20150;-85
2021/05/11 16:36:14;;;;;;;12.10;9.35;;;17.90;66.80;;;;;;4974093;28;20031;-84
2021/05/11 16:38:40;;;;;;;11.07;8.80;;;17.80;66.80;;;;;;4972863;28;20034;-84
2021/05/11 16:41:06;;;;;;;15.50;7.80;;;17.80;66.90;;;;;;4972616;28;20389;-84
2021/05/11 16:43:32;;;;;;;12.93;8.00;;;17.80;66.90;;;;;;4976202;28;20023;-83
2021/05/11 16:46:06;;;;;;;13.35;7.25;;;17.80;67.10;;;;;;4973371;28;20366;-82
2021/05/11 16:48:33;;;;;;;10.68;6.55;;;17.80;67.10;;;;;;4972907;28;20038;-84
2021/05/11 16:50:59;;;;;;;13.30;7.00;;;17.70;67.20;;;;;;4974092;28;20069;-85
2021/05/11 16:53:25;;;;;;;13.13;6.68;;;17.70;67.40;;;;;;4973783;28;20385;-85
2021/05/11 16:55:51;;;;;;;8.02;6.55;;;17.70;67.60;;;;;;4973544;28;20042;-84
2021/05/11 16:58:17;;;;;;;7.90;6.05;;;17.60;67.60;;;;;;4973836;28;20030;-84
2021/05/11 17:00:44;;;;;;;11.23;6.72;;;17.60;67.60;;;;;;4973842;28;20030;-86
2021/05/11 17:03:10;;;;;;;8.43;6.07;;;17.60;67.60;;;;;;4973586;28;20030;-87
2021/05/11 17:05:36;;;;;;;13.27;5.97;;;17.60;67.60;;;;;;4982957;28;20018;-88
2021/05/11 17:08:06;;;;;;;6.47;5.88;;;17.60;67.70;;;;;;4990773;28;20031;-86
2021/05/11 17:10:33;;;;;;;10.02;6.00;;;17.50;67.50;;;;;;4976274;28;20470;-86
2021/05/11 17:13:01;;;;;;;12.38;5.70;;;17.60;67.40;;;;;;4974391;28;20034;-87
2021/05/11 17:15:29;;;;;;;9.90;5.72;;;17.50;67.30;;;;;;4979697;28;20027;-88
2021/05/11 17:17:56;;;;;;;12.45;6.20;;;17.50;67.40;;;;;;4983205;28;20023;-90
2021/05/11 17:20:24;;;;;;;6.80;5.78;;;17.50;68.00;;;;;;4982877;28;20046;-88
2021/05/11 17:22:50;;;;;;;8.95;5.90;;;17.50;67.30;;;;;;4979172;28;20007;-89
2021/05/11 17:25:17;;;;;;;11.05;6.45;;;17.50;67.20;;;;;;4980284;28;20402;-88
2021/05/11 17:27:43;;;;;;;8.27;5.90;;;17.50;67.10;;;;;;4976070;28;20054;-90
2021/05/11 17:30:11;;;;;;;14.20;6.70;;;17.50;67.00;;;;;;4975636;28;20100;-88